sensor_id;sensor_type;location;lat;lon;timestamp;pressure;altitude;pressure_sealevel;temperature;humidity
77410;BME280;66481;51.332;22.804;2023-04-24T00:02:50;98911.41;;;8.60;67.79
77410;BME280;66481;51.332;22.804;2023-04-24T00:06:51;98920.19;;;8.60;67.59
77410;BME280;66481;51.332;22.804;2023-04-24T00:10:58;98913.34;;;8.69;66.91
77410;BME280;66481;51.332;22.804;2023-04-24T00:14:59;98905.81;;;8.76;67.11
77410;BME280;66481;51.332;22.804;2023-04-24T00:19:01;98906.03;;;8.73;67.52
77410;BME280;66481;51.332;22.804;2023-04-24T00:23:02;98880.25;;;8.65;67.90
77410;BME280;66481;51.332;22.804;2023-04-24T00:27:03;98895.13;;;8.66;67.30
77410;BME280;66481;51.332;22.804;2023-04-24T00:31:04;98880.72;;;8.70;66.95
77410;BME280;66481;51.332;22.804;2023-04-24T00:35:05;98890.69;;;8.66;67.25
77410;BME280;66481;51.332;22.804;2023-04-24T00:39:06;98873.16;;;8.77;66.29
77410;BME280;66481;51.332;22.804;2023-04-24T00:43:09;98873.06;;;8.78;66.44
77410;BME280;66481;51.332;22.804;2023-04-24T00:47:10;98882.66;;;8.79;67.02
77410;BME280;66481;51.332;22.804;2023-04-24T00:51:12;98873.16;;;8.77;66.77
77410;BME280;66481;51.332;22.804;2023-04-24T00:55:13;98869.72;;;8.65;67.58
77410;BME280;66481;51.332;22.804;2023-04-24T00:59:18;98879.91;;;8.70;66.88
77410;BME280;66481;51.332;22.804;2023-04-24T01:03:21;98880.88;;;8.69;66.98
77410;BME280;66481;51.332;22.804;2023-04-24T01:07:23;98879.31;;;8.66;66.64
77410;BME280;66481;51.332;22.804;2023-04-24T01:11:25;98880.41;;;8.63;67.44
77410;BME280;66481;51.332;22.804;2023-04-24T01:15:26;98873.91;;;8.68;66.74
77410;BME280;66481;51.332;22.804;2023-04-24T01:19:27;98880.88;;;8.57;67.51
77410;BME280;66481;51.332;22.804;2023-04-24T01:23:28;98870.91;;;8.72;66.47
77410;BME280;66481;51.332;22.804;2023-04-24T01:27:29;98876.69;;;8.55;66.61
77410;BME280;66481;51.332;22.804;2023-04-24T01:31:31;98871.03;;;8.25;68.06
77410;BME280;66481;51.332;22.804;2023-04-24T01:35:34;98863.63;;;8.31;68.20
77410;BME280;66481;51.332;22.804;2023-04-24T01:39:36;98864.22;;;8.34;68.32
77410;BME280;66481;51.332;22.804;2023-04-24T01:43:38;98861.44;;;8.24;68.16
77410;BME280;66481;51.332;22.804;2023-04-24T01:47:39;98869.34;;;8.24;67.57
77410;BME280;66481;51.332;22.804;2023-04-24T01:51:40;98870.19;;;8.36;67.57
77410;BME280;66481;51.332;22.804;2023-04-24T01:55:42;98865.50;;;8.28;67.69
77410;BME280;66481;51.332;22.804;2023-04-24T01:59:43;98867.19;;;8.18;67.88
77410;BME280;66481;51.332;22.804;2023-04-24T02:03:43;98857.69;;;8.04;68.63
77410;BME280;66481;51.332;22.804;2023-04-24T02:07:44;98857.59;;;8.06;68.14
77410;BME280;66481;51.332;22.804;2023-04-24T02:11:45;98860.34;;;8.27;67.06
77410;BME280;66481;51.332;22.804;2023-04-24T02:15:46;98859.88;;;8.10;68.70
77410;BME280;66481;51.332;22.804;2023-04-24T02:19:47;98854.34;;;8.02;68.60
77410;BME280;66481;51.332;22.804;2023-04-24T02:23:48;98843.31;;;7.97;68.56
77410;BME280;66481;51.332;22.804;2023-04-24T02:27:49;98847.63;;;7.87;69.23
77410;BME280;66481;51.332;22.804;2023-04-24T02:31:50;98829.88;;;7.66;69.78
77410;BME280;66481;51.332;22.804;2023-04-24T02:35:51;98832.75;;;7.63;70.12
77410;BME280;66481;51.332;22.804;2023-04-24T02:39:52;98840.53;;;7.65;70.49
77410;BME280;66481;51.332;22.804;2023-04-24T02:43:53;98845.22;;;7.72;69.93
77410;BME280;66481;51.332;22.804;2023-04-24T02:47:54;98828.69;;;7.70;70.04
77410;BME280;66481;51.332;22.804;2023-04-24T02:51:54;98837.91;;;7.76;69.73
77410;BME280;66481;51.332;22.804;2023-04-24T02:55:56;98843.28;;;7.63;70.46
77410;BME280;66481;51.332;22.804;2023-04-24T02:59:57;98839.22;;;7.70;69.80
77410;BME280;66481;51.332;22.804;2023-04-24T03:03:57;98841.03;;;7.70;69.89
77410;BME280;66481;51.332;22.804;2023-04-24T03:07:58;98836.94;;;7.66;69.93
77410;BME280;66481;51.332;22.804;2023-04-24T03:11:59;98834.19;;;7.56;70.29
77410;BME280;66481;51.332;22.804;2023-04-24T03:16:01;98840.38;;;7.55;70.91
77410;BME280;66481;51.332;22.804;2023-04-24T03:20:03;98842.75;;;7.47;71.09
77410;BME280;66481;51.332;22.804;2023-04-24T03:24:07;98838.75;;;7.65;70.06
77410;BME280;66481;51.332;22.804;2023-04-24T03:28:09;98838.97;;;7.62;70.93
77410;BME280;66481;51.332;22.804;2023-04-24T03:32:10;98830.97;;;7.64;70.60
77410;BME280;66481;51.332;22.804;2023-04-24T03:36:11;98834.81;;;7.94;69.56
77410;BME280;66481;51.332;22.804;2023-04-24T03:40:12;98832.81;;;8.54;67.80
77410;BME280;66481;51.332;22.804;2023-04-24T03:44:13;98824.97;;;8.86;66.02
77410;BME280;66481;51.332;22.804;2023-04-24T03:48:14;98814.16;;;8.89;65.51
77410;BME280;66481;51.332;22.804;2023-04-24T03:52:15;98829.22;;;9.31;65.06
77410;BME280;66481;51.332;22.804;2023-04-24T03:56:17;98834.41;;;9.53;64.28
77410;BME280;66481;51.332;22.804;2023-04-24T04:00:18;98837.88;;;9.75;63.53
77410;BME280;66481;51.332;22.804;2023-04-24T04:04:19;98827.84;;;10.00;62.35
77410;BME280;66481;51.332;22.804;2023-04-24T04:08:20;98833.50;;;9.43;63.42
77410;BME280;66481;51.332;22.804;2023-04-24T04:12:20;98830.88;;;9.11;64.51
77410;BME280;66481;51.332;22.804;2023-04-24T04:16:22;98844.22;;;8.98;66.07
77410;BME280;66481;51.332;22.804;2023-04-24T04:20:23;98840.16;;;8.94;66.31
77410;BME280;66481;51.332;22.804;2023-04-24T04:24:25;98845.78;;;9.00;66.45
77410;BME280;66481;51.332;22.804;2023-04-24T04:28:27;98841.91;;;9.16;66.20
77410;BME280;66481;51.332;22.804;2023-04-24T04:32:28;98835.28;;;9.21;65.98
77410;BME280;66481;51.332;22.804;2023-04-24T04:36:29;98850.06;;;9.13;66.73
77410;BME280;66481;51.332;22.804;2023-04-24T04:40:30;98835.28;;;9.21;66.49
77410;BME280;66481;51.332;22.804;2023-04-24T04:44:31;98844.75;;;9.24;66.22
77410;BME280;66481;51.332;22.804;2023-04-24T04:48:32;98838.25;;;9.28;66.69
77410;BME280;66481;51.332;22.804;2023-04-24T04:52:33;98843.75;;;9.57;65.25
77410;BME280;66481;51.332;22.804;2023-04-24T04:56:34;98848.50;;;9.64;66.44
77410;BME280;66481;51.332;22.804;2023-04-24T05:00:36;98831.94;;;9.62;66.24
77410;BME280;66481;51.332;22.804;2023-04-24T05:04:38;98828.56;;;9.71;66.34
77410;BME280;66481;51.332;22.804;2023-04-24T05:08:39;98841.53;;;9.84;66.18
77410;BME280;66481;51.332;22.804;2023-04-24T05:12:40;98838.97;;;10.55;64.52
77410;BME280;66481;51.332;22.804;2023-04-24T05:16:41;98846.72;;;10.37;63.91
77410;BME280;66481;51.332;22.804;2023-04-24T05:20:43;98840.28;;;11.88;62.43
77410;BME280;66481;51.332;22.804;2023-04-24T05:24:47;98838.16;;;13.30;56.80
77410;BME280;66481;51.332;22.804;2023-04-24T05:28:49;98829.22;;;14.19;53.60
77410;BME280;66481;51.332;22.804;2023-04-24T05:32:50;98825.00;;;14.85;51.51
77410;BME280;66481;51.332;22.804;2023-04-24T05:36:52;98836.34;;;12.94;55.18
77410;BME280;66481;51.332;22.804;2023-04-24T05:40:53;98816.94;;;14.26;54.72
77410;BME280;66481;51.332;22.804;2023-04-24T05:44:54;98832.41;;;12.53;56.55
77410;BME280;66481;51.332;22.804;2023-04-24T05:48:55;98809.09;;;12.92;56.79
77410;BME280;66481;51.332;22.804;2023-04-24T05:52:56;98818.84;;;14.42;53.40
77410;BME280;66481;51.332;22.804;2023-04-24T05:56:59;98816.13;;;14.34;53.14
77410;BME280;66481;51.332;22.804;2023-04-24T06:01:00;98809.72;;;14.45;52.57
77410;BME280;66481;51.332;22.804;2023-04-24T06:05:02;98786.28;;;15.16;51.55
77410;BME280;66481;51.332;22.804;2023-04-24T06:09:05;98813.44;;;16.33;48.28
77410;BME280;66481;51.332;22.804;2023-04-24T06:13:06;98783.84;;;16.03;47.87
77410;BME280;66481;51.332;22.804;2023-04-24T06:17:07;98808.50;;;16.22;47.59
77410;BME280;66481;51.332;22.804;2023-04-24T06:21:08;98776.69;;;16.74;45.37
77410;BME280;66481;51.332;22.804;2023-04-24T06:25:10;98785.16;;;17.56;45.00
77410;BME280;66481;51.332;22.804;2023-04-24T06:29:11;98791.56;;;16.85;45.32
77410;BME280;66481;51.332;22.804;2023-04-24T06:33:12;98784.91;;;17.65;44.61
77410;BME280;66481;51.332;22.804;2023-04-24T06:37:13;98801.84;;;18.55;42.37
77410;BME280;66481;51.332;22.804;2023-04-24T06:41:15;98783.59;;;17.61;43.77
77410;BME280;66481;51.332;22.804;2023-04-24T06:45:16;98799.53;;;18.67;42.88
77410;BME280;66481;51.332;22.804;2023-04-24T06:49:17;98783.19;;;18.62;42.31
77410;BME280;66481;51.332;22.804;2023-04-24T06:53:18;98782.47;;;18.38;42.01
77410;BME280;66481;51.332;22.804;2023-04-24T06:57:19;98789.19;;;19.22;42.50
77410;BME280;66481;51.332;22.804;2023-04-24T07:01:20;98776.03;;;19.06;41.84
77410;BME280;66481;51.332;22.804;2023-04-24T07:05:24;98800.06;;;19.64;40.77
77410;BME280;66481;51.332;22.804;2023-04-24T07:09:26;98780.84;;;20.17;39.67
77410;BME280;66481;51.332;22.804;2023-04-24T07:13:27;98784.34;;;20.17;40.99
77410;BME280;66481;51.332;22.804;2023-04-24T07:17:28;98782.50;;;19.33;39.42
77410;BME280;66481;51.332;22.804;2023-04-24T07:21:29;98788.16;;;20.36;38.79
77410;BME280;66481;51.332;22.804;2023-04-24T07:25:32;98769.22;;;19.75;41.67
77410;BME280;66481;51.332;22.804;2023-04-24T07:29:33;98793.06;;;21.63;36.69
77410;BME280;66481;51.332;22.804;2023-04-24T07:33:34;98792.25;;;21.69;37.01
77410;BME280;66481;51.332;22.804;2023-04-24T07:37:36;98796.78;;;21.88;36.74
77410;BME280;66481;51.332;22.804;2023-04-24T07:41:37;98792.78;;;20.49;35.56
77410;BME280;66481;51.332;22.804;2023-04-24T07:45:39;98785.03;;;20.74;35.03
77410;BME280;66481;51.332;22.804;2023-04-24T07:49:41;98787.06;;;21.54;35.07
77410;BME280;66481;51.332;22.804;2023-04-24T07:53:43;98798.41;;;20.13;36.74
77410;BME280;66481;51.332;22.804;2023-04-24T07:57:44;98764.00;;;20.43;36.08
77410;BME280;66481;51.332;22.804;2023-04-24T08:01:45;98776.53;;;20.64;35.68
77410;BME280;66481;51.332;22.804;2023-04-24T08:05:47;98767.97;;;21.15;34.62
77410;BME280;66481;51.332;22.804;2023-04-24T08:09:48;98771.91;;;21.06;34.92
77410;BME280;66481;51.332;22.804;2023-04-24T08:13:49;98772.84;;;22.84;34.04
77410;BME280;66481;51.332;22.804;2023-04-24T08:17:51;98766.94;;;21.30;34.10
77410;BME280;66481;51.332;22.804;2023-04-24T08:21:52;98756.88;;;20.63;35.76
77410;BME280;66481;51.332;22.804;2023-04-24T08:25:54;98775.06;;;21.63;34.46
77410;BME280;66481;51.332;22.804;2023-04-24T08:29:57;98763.63;;;21.88;33.54
77410;BME280;66481;51.332;22.804;2023-04-24T08:33:59;98766.13;;;21.83;33.14
77410;BME280;66481;51.332;22.804;2023-04-24T08:38:01;98752.47;;;21.77;32.91
77410;BME280;66481;51.332;22.804;2023-04-24T08:42:02;98772.13;;;21.85;33.59
77410;BME280;66481;51.332;22.804;2023-04-24T08:46:09;98779.19;;;21.46;34.36
77410;BME280;66481;51.332;22.804;2023-04-24T08:50:11;98756.28;;;22.28;33.71
77410;BME280;66481;51.332;22.804;2023-04-24T08:54:13;98755.47;;;22.28;33.29
77410;BME280;66481;51.332;22.804;2023-04-24T08:58:16;98754.69;;;21.94;33.06
77410;BME280;66481;51.332;22.804;2023-04-24T09:02:17;98753.06;;;21.26;34.94
77410;BME280;66481;51.332;22.804;2023-04-24T09:06:19;98761.19;;;22.58;32.05
77410;BME280;66481;51.332;22.804;2023-04-24T09:10:24;98756.78;;;21.98;36.75
77410;BME280;66481;51.332;22.804;2023-04-24T09:14:26;98737.69;;;22.13;35.54
77410;BME280;66481;51.332;22.804;2023-04-24T09:18:27;98748.47;;;22.00;34.74
77410;BME280;66481;51.332;22.804;2023-04-24T09:22:31;98718.84;;;22.00;33.04
77410;BME280;66481;51.332;22.804;2023-04-24T09:26:35;98725.75;;;21.69;36.21
77410;BME280;66481;51.332;22.804;2023-04-24T09:30:37;98719.75;;;21.81;35.16
77410;BME280;66481;51.332;22.804;2023-04-24T09:34:38;98725.03;;;22.98;33.45
77410;BME280;66481;51.332;22.804;2023-04-24T09:38:39;98727.03;;;22.39;35.71
77410;BME280;66481;51.332;22.804;2023-04-24T09:42:44;98728.41;;;23.25;31.46
77410;BME280;66481;51.332;22.804;2023-04-24T09:46:53;98719.53;;;23.18;31.03
77410;BME280;66481;51.332;22.804;2023-04-24T09:50:55;98709.66;;;22.66;33.22
77410;BME280;66481;51.332;22.804;2023-04-24T09:54:56;98711.72;;;22.71;34.00
77410;BME280;66481;51.332;22.804;2023-04-24T09:59:04;98717.47;;;22.81;32.09
77410;BME280;66481;51.332;22.804;2023-04-24T10:03:05;98711.88;;;22.44;31.82
77410;BME280;66481;51.332;22.804;2023-04-24T10:07:08;98701.97;;;22.25;35.42
77410;BME280;66481;51.332;22.804;2023-04-24T10:11:10;98712.38;;;22.14;32.65
77410;BME280;66481;51.332;22.804;2023-04-24T10:15:12;98695.28;;;21.82;35.42
77410;BME280;66481;51.332;22.804;2023-04-24T10:19:15;98704.78;;;21.98;33.47
77410;BME280;66481;51.332;22.804;2023-04-24T10:23:16;98697.00;;;21.63;33.80
77410;BME280;66481;51.332;22.804;2023-04-24T18:45:53;98468.69;;;14.23;44.42
77410;BME280;66481;51.332;22.804;2023-04-24T18:49:55;98465.19;;;14.06;44.94
77410;BME280;66481;51.332;22.804;2023-04-24T18:53:56;98466.72;;;14.17;45.48
77410;BME280;66481;51.332;22.804;2023-04-24T18:57:57;98466.88;;;14.16;46.68
77410;BME280;66481;51.332;22.804;2023-04-24T19:01:59;98469.00;;;14.20;47.93
77410;BME280;66481;51.332;22.804;2023-04-24T19:06:00;98469.19;;;14.19;50.15
77410;BME280;66481;51.332;22.804;2023-04-24T19:10:02;98462.53;;;14.15;50.54
77410;BME280;66481;51.332;22.804;2023-04-24T19:14:04;98466.03;;;14.07;51.52
77410;BME280;66481;51.332;22.804;2023-04-24T19:18:05;98475.50;;;14.09;52.12
77410;BME280;66481;51.332;22.804;2023-04-24T19:22:06;98456.91;;;13.93;52.97
77410;BME280;66481;51.332;22.804;2023-04-24T19:26:08;98446.25;;;13.85;53.64
77410;BME280;66481;51.332;22.804;2023-04-24T19:30:09;98464.69;;;13.70;55.03
77410;BME280;66481;51.332;22.804;2023-04-24T19:34:10;98526.00;;;13.26;57.32
77410;BME280;66481;51.332;22.804;2023-04-24T19:38:11;98501.38;;;13.15;52.43
77410;BME280;66481;51.332;22.804;2023-04-24T19:42:12;98477.50;;;13.83;48.66
77410;BME280;66481;51.332;22.804;2023-04-24T19:46:14;98479.66;;;14.20;46.13
77410;BME280;66481;51.332;22.804;2023-04-24T19:50:15;98480.31;;;14.30;46.10
77410;BME280;66481;51.332;22.804;2023-04-24T19:54:16;98486.78;;;14.53;46.38
77410;BME280;66481;51.332;22.804;2023-04-24T19:58:19;98488.78;;;14.51;46.84
77410;BME280;66481;51.332;22.804;2023-04-24T20:02:21;98475.97;;;14.38;47.59
77410;BME280;66481;51.332;22.804;2023-04-24T20:06:22;98481.16;;;14.15;48.69
77410;BME280;66481;51.332;22.804;2023-04-24T20:10:24;98478.00;;;14.03;50.38
77410;BME280;66481;51.332;22.804;2023-04-24T20:14:26;98484.81;;;13.89;51.37
77410;BME280;66481;51.332;22.804;2023-04-24T20:18:29;98488.66;;;13.95;51.41
77410;BME280;66481;51.332;22.804;2023-04-24T20:22:30;98459.72;;;13.83;50.81
77410;BME280;66481;51.332;22.804;2023-04-24T20:26:36;98466.34;;;13.71;52.34
77410;BME280;66481;51.332;22.804;2023-04-24T20:30:37;98465.31;;;13.56;52.92
77410;BME280;66481;51.332;22.804;2023-04-24T20:34:40;98465.63;;;13.52;53.48
77410;BME280;66481;51.332;22.804;2023-04-24T20:38:45;98458.19;;;13.48;53.11
77410;BME280;66481;51.332;22.804;2023-04-24T20:42:50;98464.44;;;13.39;54.11
77410;BME280;66481;51.332;22.804;2023-04-24T20:46:51;98455.59;;;13.30;54.97
77410;BME280;66481;51.332;22.804;2023-04-24T20:50:52;98461.59;;;12.89;56.70
77410;BME280;66481;51.332;22.804;2023-04-24T20:54:54;98471.09;;;12.66;58.24
77410;BME280;66481;51.332;22.804;2023-04-24T20:58:55;98474.69;;;12.56;58.84
77410;BME280;66481;51.332;22.804;2023-04-24T21:02:56;98474.19;;;12.35;60.15
77410;BME280;66481;51.332;22.804;2023-04-24T21:06:57;98469.31;;;12.22;61.03
77410;BME280;66481;51.332;22.804;2023-04-24T21:10:58;98474.84;;;12.11;61.27
77410;BME280;66481;51.332;22.804;2023-04-24T21:14:59;98490.13;;;11.91;63.23
77410;BME280;66481;51.332;22.804;2023-04-24T21:19:01;98491.28;;;11.78;64.12
77410;BME280;66481;51.332;22.804;2023-04-24T21:23:03;98494.06;;;11.59;64.84
77410;BME280;66481;51.332;22.804;2023-04-24T21:27:04;98482.25;;;11.35;66.00
77410;BME280;66481;51.332;22.804;2023-04-24T21:31:05;98485.38;;;11.21;66.64
77410;BME280;66481;51.332;22.804;2023-04-24T21:35:07;98485.38;;;10.93;67.32
77410;BME280;66481;51.332;22.804;2023-04-24T21:39:09;98488.22;;;10.72;68.59
77410;BME280;66481;51.332;22.804;2023-04-24T21:43:10;98483.09;;;10.70;67.79
77410;BME280;66481;51.332;22.804;2023-04-24T21:47:12;98477.53;;;10.64;68.17
77410;BME280;66481;51.332;22.804;2023-04-24T21:51:13;98468.09;;;10.61;67.38
77410;BME280;66481;51.332;22.804;2023-04-24T21:55:14;98474.19;;;10.62;66.96
77410;BME280;66481;51.332;22.804;2023-04-24T21:59:15;98465.44;;;10.61;67.10
77410;BME280;66481;51.332;22.804;2023-04-24T22:03:16;98474.78;;;10.56;67.60
77410;BME280;66481;51.332;22.804;2023-04-24T22:07:17;98475.28;;;10.31;69.12
77410;BME280;66481;51.332;22.804;2023-04-24T22:11:18;98470.81;;;10.03;71.26
77410;BME280;66481;51.332;22.804;2023-04-24T22:15:19;98469.00;;;10.03;69.68
77410;BME280;66481;51.332;22.804;2023-04-24T22:19:20;98473.72;;;10.00;70.02
77410;BME280;66481;51.332;22.804;2023-04-24T22:23:21;98463.28;;;9.98;70.01
77410;BME280;66481;51.332;22.804;2023-04-24T22:27:22;98458.44;;;9.93;69.95
77410;BME280;66481;51.332;22.804;2023-04-24T22:31:23;98451.34;;;9.84;70.03
77410;BME280;66481;51.332;22.804;2023-04-24T22:35:24;98457.47;;;9.75;69.48
77410;BME280;66481;51.332;22.804;2023-04-24T22:39:26;98447.88;;;9.64;68.73
77410;BME280;66481;51.332;22.804;2023-04-24T22:43:27;98447.03;;;9.54;68.98
77410;BME280;66481;51.332;22.804;2023-04-24T22:47:29;98436.88;;;9.39;71.13
77410;BME280;66481;51.332;22.804;2023-04-24T22:51:30;98430.34;;;9.34;71.92
77410;BME280;66481;51.332;22.804;2023-04-24T22:55:34;98433.25;;;9.31;72.76
77410;BME280;66481;51.332;22.804;2023-04-24T22:59:35;98425.31;;;9.11;74.01
77410;BME280;66481;51.332;22.804;2023-04-24T23:03:36;98424.69;;;8.88;74.79
77410;BME280;66481;51.332;22.804;2023-04-24T23:07:37;98424.34;;;8.72;76.11
77410;BME280;66481;51.332;22.804;2023-04-24T23:11:39;98427.59;;;8.85;75.94
77410;BME280;66481;51.332;22.804;2023-04-24T23:15:40;98422.69;;;8.71;74.89
77410;BME280;66481;51.332;22.804;2023-04-24T23:19:41;98431.94;;;8.55;77.67
77410;BME280;66481;51.332;22.804;2023-04-24T23:23:42;98421.16;;;8.68;76.05
77410;BME280;66481;51.332;22.804;2023-04-24T23:27:43;98406.53;;;8.54;76.69
77410;BME280;66481;51.332;22.804;2023-04-24T23:31:44;98424.53;;;8.80;74.91
77410;BME280;66481;51.332;22.804;2023-04-24T23:35:45;98408.44;;;8.83;74.95
77410;BME280;66481;51.332;22.804;2023-04-24T23:39:47;98381.66;;;8.88;74.05
77410;BME280;66481;51.332;22.804;2023-04-24T23:43:48;98397.66;;;9.06;73.80
77410;BME280;66481;51.332;22.804;2023-04-24T23:47:49;98391.03;;;9.21;73.02
77410;BME280;66481;51.332;22.804;2023-04-24T23:51:50;98398.25;;;9.29;73.54
77410;BME280;66481;51.332;22.804;2023-04-24T23:55:51;98392.28;;;9.46;72.76
77410;BME280;66481;51.332;22.804;2023-04-24T23:59:52;98388.09;;;9.63;72.88
